createdAt,value
2023-04-25T00:01:52.491Z,2.22
2023-04-25T00:04:23.216Z,2.13
2023-04-25T00:06:55.934Z,2.83
2023-04-25T00:09:26.313Z,2.50
2023-04-25T00:11:55.987Z,3.03
2023-04-25T00:14:26.409Z,2.65
2023-04-25T00:16:56.383Z,2.40
2023-04-25T00:19:27.947Z,2.33
2023-04-25T00:22:00.435Z,2.35
2023-04-25T00:24:30.186Z,2.00
2023-04-25T00:26:59.953Z,2.20
2023-04-25T00:29:29.834Z,2.15
2023-04-25T00:31:59.680Z,2.33
2023-04-25T00:34:29.456Z,2.30
2023-04-25T00:37:03.097Z,1.92
2023-04-25T00:39:32.790Z,2.65
2023-04-25T00:42:03.437Z,2.33
2023-04-25T00:44:34.357Z,2.00
2023-04-25T00:47:06.083Z,2.40
2023-04-25T00:49:36.574Z,2.03
2023-04-25T00:52:09.163Z,2.30
2023-04-25T00:54:41.686Z,2.20
2023-04-25T00:57:11.908Z,2.38
2023-04-25T00:59:42.191Z,2.95
2023-04-25T01:02:12.738Z,2.30
2023-04-25T01:04:43.013Z,3.08
2023-04-25T01:07:15.333Z,2.63
2023-04-25T01:09:45.519Z,3.00
2023-04-25T01:12:16.136Z,2.53
2023-04-25T01:14:45.946Z,2.90
2023-04-25T01:17:17.156Z,2.50
2023-04-25T01:19:47.291Z,2.50
2023-04-25T01:22:19.734Z,2.53
2023-04-25T01:24:50.708Z,2.72
2023-04-25T01:27:21.959Z,2.28
2023-04-25T01:29:52.657Z,2.40
2023-04-25T01:32:22.717Z,2.40
2023-04-25T01:34:53.171Z,2.50
2023-04-25T01:37:26.413Z,2.60
2023-04-25T01:39:56.253Z,2.50
2023-04-25T01:42:26.285Z,2.95
2023-04-25T01:44:56.173Z,2.50
2023-04-25T01:47:26.059Z,2.40
2023-04-25T01:49:55.992Z,2.30
2023-04-25T01:52:28.756Z,2.35
2023-04-25T01:55:00.750Z,2.42
2023-04-25T01:57:31.677Z,2.25
2023-04-25T02:00:04.000Z,3.20
2023-04-25T02:02:42.853Z,2.95
2023-04-25T02:05:25.537Z,3.17
2023-04-25T02:07:58.110Z,2.83
2023-04-25T02:10:29.301Z,2.63
2023-04-25T02:13:11.173Z,2.47
2023-04-25T02:15:59.750Z,2.65
2023-04-25T02:18:29.972Z,2.58
2023-04-25T02:20:59.651Z,2.83
2023-04-25T02:23:32.162Z,3.00
2023-04-25T02:26:03.641Z,2.85
2023-04-25T02:28:33.607Z,2.70
2023-04-25T02:31:07.970Z,2.72
2023-04-25T02:33:37.735Z,2.92
2023-04-25T02:36:09.784Z,2.88
2023-04-25T02:38:42.528Z,3.10
2023-04-25T02:41:12.193Z,2.85
2023-04-25T02:43:41.903Z,3.65
2023-04-25T02:46:11.731Z,2.85
2023-04-25T02:48:42.995Z,2.83
2023-04-25T02:51:12.700Z,2.50
2023-04-25T02:53:45.123Z,2.97
2023-04-25T02:56:14.914Z,3.38
2023-04-25T02:58:44.607Z,2.85
2023-04-25T03:01:14.600Z,2.90
2023-04-25T03:03:44.495Z,3.75
2023-04-25T03:06:14.499Z,3.17
2023-04-25T03:08:46.945Z,3.28
2023-04-25T03:11:16.710Z,2.80
2023-04-25T03:13:46.752Z,2.63
2023-04-25T03:16:17.410Z,2.60
2023-04-25T03:18:47.185Z,2.80
2023-04-25T03:21:17.074Z,2.80
2023-04-25T03:23:49.519Z,2.95
2023-04-25T03:26:19.401Z,3.08
2023-04-25T03:28:49.207Z,2.47
2023-04-25T03:31:19.000Z,2.80
2023-04-25T03:33:49.014Z,2.95
2023-04-25T03:36:20.201Z,2.38
2023-04-25T03:38:52.460Z,3.20
2023-04-25T03:41:24.600Z,2.75
2023-04-25T03:43:58.178Z,2.35
2023-04-25T03:46:28.131Z,2.22
2023-04-25T03:48:57.903Z,2.63
2023-04-25T03:51:35.101Z,2.50
2023-04-25T03:54:08.488Z,2.78
2023-04-25T03:56:43.793Z,2.80
2023-04-25T03:59:21.604Z,2.92
2023-04-25T04:01:51.628Z,3.60
2023-04-25T04:04:21.715Z,3.33
2023-04-25T04:06:51.947Z,3.08
2023-04-25T04:09:29.911Z,3.65
2023-04-25T04:12:02.592Z,3.45
2023-04-25T04:14:34.318Z,2.83
2023-04-25T04:17:04.051Z,3.30
2023-04-25T04:19:33.702Z,3.35
2023-04-25T04:22:11.676Z,3.28
2023-04-25T04:24:47.596Z,3.45
2023-04-25T04:27:23.752Z,3.47
2023-04-25T04:30:04.442Z,4.28
2023-04-25T04:32:38.888Z,3.92
2023-04-25T04:35:12.268Z,3.45
2023-04-25T04:37:42.618Z,3.60
2023-04-25T04:40:19.080Z,3.60
2023-04-25T04:42:57.634Z,4.07
2023-04-25T04:45:57.318Z,3.92
2023-04-25T04:48:45.686Z,4.38
2023-04-25T04:51:39.407Z,4.22
2023-04-25T04:54:19.565Z,4.97
2023-04-25T04:57:17.713Z,3.85
2023-04-25T05:00:11.818Z,3.10
2023-04-25T05:03:07.652Z,3.47
2023-04-25T05:05:56.542Z,4.20
2023-04-25T05:08:36.087Z,3.55
2023-04-25T05:11:37.889Z,3.53
2023-04-25T05:14:19.600Z,3.75
2023-04-25T05:17:12.129Z,3.28
2023-04-25T05:20:00.414Z,3.90
2023-04-25T05:23:02.625Z,3.63
2023-04-25T05:25:44.867Z,3.10
2023-04-25T05:28:28.182Z,3.30
2023-04-25T05:31:18.665Z,3.40
2023-04-25T05:33:59.925Z,3.72
2023-04-25T05:36:39.460Z,3.20
2023-04-25T05:39:10.032Z,3.53
2023-04-25T05:41:58.355Z,3.58
2023-04-25T05:44:56.323Z,3.75
2023-04-25T05:47:37.946Z,4.35
2023-04-25T05:50:15.833Z,4.10
2023-04-25T05:53:03.857Z,3.97
2023-04-25T05:55:42.164Z,3.65
2023-04-25T05:58:41.298Z,4.13
2023-04-25T06:01:13.183Z,3.40
2023-04-25T06:03:46.189Z,3.65
2023-04-25T06:06:16.118Z,3.65
2023-04-25T06:08:46.060Z,4.40
2023-04-25T06:11:15.784Z,4.07
2023-04-25T06:13:45.483Z,4.05
2023-04-25T06:16:15.860Z,4.30
2023-04-25T06:18:48.184Z,3.95
2023-04-25T06:21:18.781Z,3.58
2023-04-25T06:23:49.138Z,3.28
2023-04-25T06:26:23.890Z,2.90
2023-04-25T06:28:53.627Z,3.33
2023-04-25T06:31:23.377Z,3.78
2023-04-25T06:33:58.046Z,3.20
2023-04-25T06:36:29.442Z,3.60
2023-04-25T06:39:05.729Z,3.50
2023-04-25T06:41:36.613Z,3.70
2023-04-25T06:44:09.945Z,3.58
2023-04-25T06:46:44.240Z,3.33
2023-04-25T06:49:19.425Z,2.80
2023-04-25T06:51:49.185Z,2.75
2023-04-25T06:54:18.953Z,3.92
2023-04-25T06:56:59.369Z,3.60
2023-04-25T06:59:30.604Z,4.22
2023-04-25T07:02:00.301Z,3.22
2023-04-25T07:04:32.899Z,2.83
2023-04-25T07:07:03.872Z,3.08
2023-04-25T07:09:43.088Z,3.15
2023-04-25T07:12:12.752Z,3.17
2023-04-25T07:14:42.417Z,3.17
2023-04-25T07:17:13.179Z,2.42
2023-04-25T07:19:45.966Z,2.92
2023-04-25T07:22:16.110Z,2.72
2023-04-25T07:24:49.719Z,3.30
2023-04-25T07:27:22.179Z,3.50
2023-04-25T07:30:18.133Z,3.42
2023-04-25T07:32:47.864Z,3.08
2023-04-25T07:35:21.478Z,3.28
2023-04-25T07:37:52.415Z,3.20
2023-04-25T07:40:23.776Z,2.78
2023-04-25T07:42:58.458Z,2.70
2023-04-25T07:45:36.444Z,3.20
2023-04-25T07:48:07.440Z,3.58
2023-04-25T07:50:42.777Z,3.53
2023-04-25T07:53:12.522Z,2.88
2023-04-25T07:55:49.650Z,3.13
2023-04-25T07:58:22.595Z,2.20
2023-04-25T08:00:57.374Z,2.60
2023-04-25T08:03:44.188Z,2.28
2023-04-25T08:06:23.241Z,2.53
2023-04-25T08:09:10.594Z,2.97
2023-04-25T08:11:43.174Z,2.97
2023-04-25T08:14:15.532Z,2.72
2023-04-25T08:16:47.097Z,2.85
2023-04-25T08:19:17.071Z,2.53
2023-04-25T08:21:52.999Z,2.30
2023-04-25T08:24:29.515Z,2.30
2023-04-25T08:27:00.174Z,2.15
2023-04-25T08:29:31.675Z,2.45
2023-04-25T08:32:01.355Z,2.38
2023-04-25T08:34:31.833Z,2.92
2023-04-25T08:37:09.427Z,2.55
2023-04-25T08:39:44.507Z,2.58
2023-04-25T08:42:35.341Z,1.85
2023-04-25T08:45:07.659Z,2.72
2023-04-25T08:47:42.718Z,3.10
2023-04-25T08:50:12.894Z,2.28
2023-04-25T08:52:49.210Z,1.80
2023-04-25T08:55:19.734Z,3.40
2023-04-25T08:57:50.021Z,2.83
2023-04-25T09:00:22.434Z,2.72
2023-04-25T09:02:52.462Z,2.28
2023-04-25T09:05:22.546Z,2.53
2023-04-25T09:07:59.316Z,1.95
2023-04-25T09:13:10.148Z,2.22
2023-04-25T09:16:02.811Z,1.90
2023-04-25T09:18:48.372Z,2.20
2023-04-25T09:21:18.739Z,2.33
2023-04-25T09:23:53.816Z,2.03
2023-04-25T09:26:25.227Z,2.03
2023-04-25T09:29:09.329Z,1.42
2023-04-25T09:31:43.361Z,2.85
2023-04-25T09:34:16.856Z,2.20
2023-04-25T09:36:51.833Z,1.70
2023-04-25T09:39:48.473Z,1.70
2023-04-25T09:42:20.791Z,1.67
2023-04-25T09:44:50.990Z,1.90
2023-04-25T09:47:22.850Z,1.58
2023-04-25T09:49:53.588Z,1.67
2023-04-25T09:52:26.501Z,1.85
2023-04-25T09:55:07.132Z,1.80
2023-04-25T09:57:40.969Z,1.65
2023-04-25T10:00:14.180Z,1.50
2023-04-25T10:02:50.635Z,1.77
2023-04-25T10:05:47.211Z,1.90
2023-04-25T10:08:17.614Z,2.20
2023-04-25T10:10:52.612Z,1.75
2023-04-25T10:13:22.750Z,1.30
2023-04-25T10:15:53.524Z,1.30
2023-04-25T10:18:23.601Z,1.60
2023-04-25T10:20:54.405Z,1.50
2023-04-25T10:23:24.630Z,1.85
2023-04-25T10:25:57.862Z,1.42
2023-04-25T10:28:29.488Z,1.50
2023-04-25T10:31:04.084Z,1.65
2023-04-25T10:33:37.691Z,0.93
2023-04-25T10:36:15.340Z,1.33
2023-04-25T10:38:46.764Z,1.40
2023-04-25T10:41:22.403Z,1.17
2023-04-25T10:43:52.949Z,1.20
2023-04-25T10:46:26.246Z,1.27
2023-04-25T10:48:57.497Z,0.82
2023-04-25T10:51:34.569Z,1.40
2023-04-25T10:54:08.685Z,1.17
2023-04-25T10:56:45.558Z,1.40
2023-04-25T10:59:16.892Z,1.40
2023-04-25T11:01:50.388Z,1.13
2023-04-25T11:04:27.798Z,1.35
2023-04-25T11:07:11.807Z,1.33
2023-04-25T11:09:43.592Z,1.30
2023-04-25T11:12:16.237Z,1.67
2023-04-25T11:14:46.107Z,1.60
2023-04-25T11:17:15.915Z,1.45
2023-04-25T11:19:45.765Z,1.80
2023-04-25T11:22:16.266Z,1.63
2023-04-25T11:24:46.418Z,1.63
2023-04-25T11:27:18.749Z,1.80
2023-04-25T11:29:49.255Z,1.50
2023-04-25T11:32:21.290Z,1.63
2023-04-25T11:34:51.554Z,1.65
2023-04-25T11:37:22.278Z,1.55
2023-04-25T11:39:52.425Z,1.40
2023-04-25T11:42:24.697Z,1.60
2023-04-25T11:44:55.330Z,1.60
2023-04-25T11:47:32.270Z,1.65
2023-04-25T11:50:03.768Z,1.40
2023-04-25T11:52:43.240Z,1.50
2023-04-25T11:55:16.473Z,1.42
2023-04-25T11:57:53.071Z,1.35
2023-04-25T12:00:26.421Z,1.40
2023-04-25T12:02:59.246Z,1.50
2023-04-25T12:05:33.223Z,1.83
2023-04-25T12:08:16.538Z,1.65
2023-04-25T12:10:49.294Z,1.50
2023-04-25T12:13:26.096Z,1.48
2023-04-25T12:15:58.345Z,1.40
2023-04-25T12:18:29.563Z,1.50
2023-04-25T12:20:59.318Z,1.13
2023-04-25T12:23:31.893Z,1.52
2023-04-25T12:26:03.935Z,0.90
2023-04-25T12:28:36.458Z,1.23
2023-04-25T12:31:07.580Z,1.30
2023-04-25T12:33:40.544Z,1.38
2023-04-25T12:36:13.873Z,1.70
2023-04-25T12:38:45.155Z,1.48
2023-04-25T12:41:14.819Z,1.75
2023-04-25T12:43:47.234Z,1.38
2023-04-25T12:46:17.047Z,1.60
2023-04-25T12:48:47.061Z,1.60
2023-04-25T12:51:17.032Z,1.40
2023-04-25T12:53:46.762Z,1.75
2023-04-25T12:56:16.640Z,1.52
2023-04-25T12:58:49.573Z,1.60
2023-04-25T13:01:20.360Z,1.70
2023-04-25T13:03:50.651Z,1.70
2023-04-25T13:06:21.475Z,2.10
2023-04-25T13:08:51.305Z,2.08
2023-04-25T13:11:21.497Z,2.08
2023-04-25T13:13:54.266Z,1.67
2023-04-25T13:16:24.519Z,1.63
2023-04-25T13:18:54.268Z,1.50
2023-04-25T13:21:23.916Z,2.42
2023-04-25T13:23:54.226Z,1.75
2023-04-25T13:26:24.413Z,1.80
2023-04-25T13:28:56.819Z,1.88
2023-04-25T13:31:26.979Z,1.90
2023-04-25T13:33:57.199Z,1.88
2023-04-25T13:36:27.058Z,1.65
2023-04-25T13:38:56.707Z,1.90
2023-04-25T13:41:26.425Z,1.90
2023-04-25T13:43:58.772Z,2.22
2023-04-25T13:46:44.665Z,1.25
2023-04-25T13:49:15.993Z,1.75
2023-04-25T13:51:45.995Z,1.60
2023-04-25T13:54:15.693Z,2.08
2023-04-25T13:56:45.640Z,1.50
2023-04-25T13:59:18.232Z,1.52
2023-04-25T14:01:47.966Z,1.77
2023-04-25T14:04:17.726Z,1.77
2023-04-25T14:06:47.701Z,1.13
2023-04-25T14:09:17.381Z,1.20
2023-04-25T14:11:47.053Z,1.40
2023-04-25T14:14:19.343Z,1.02
2023-04-25T14:16:49.356Z,0.90
2023-04-25T14:19:20.938Z,1.55
2023-04-25T14:21:51.870Z,1.20
2023-04-25T14:24:21.632Z,0.82
2023-04-25T14:26:51.380Z,0.98
2023-04-25T14:29:23.706Z,1.10
2023-04-25T14:31:54.771Z,1.15
2023-04-25T14:34:24.522Z,0.93
2023-04-25T14:36:54.962Z,1.05
2023-04-25T14:39:24.671Z,1.17
2023-04-25T14:41:54.394Z,1.10
2023-04-25T14:44:26.724Z,1.10
2023-04-25T14:46:56.659Z,0.90
2023-04-25T14:49:26.432Z,0.93
2023-04-25T14:51:56.165Z,1.00
2023-04-25T14:54:26.764Z,1.00
2023-04-25T14:56:56.619Z,0.90
2023-04-25T14:59:29.292Z,1.10
2023-04-25T15:02:00.162Z,1.40
2023-04-25T15:04:30.194Z,1.20
2023-04-25T15:07:00.421Z,1.00
2023-04-25T15:09:30.223Z,1.10
2023-04-25T15:12:00.760Z,0.93
2023-04-25T15:14:33.071Z,0.70
2023-04-25T15:17:03.574Z,0.90
2023-04-25T15:19:33.427Z,0.80
2023-04-25T15:22:04.707Z,0.80
2023-04-25T15:24:34.456Z,0.88
2023-04-25T15:27:05.662Z,0.80
2023-04-25T15:29:37.944Z,0.90
2023-04-25T15:32:08.017Z,1.00
2023-04-25T15:34:38.175Z,0.70
2023-04-25T15:37:07.871Z,1.05
2023-04-25T15:39:37.689Z,1.20
2023-04-25T15:42:07.455Z,1.10
2023-04-25T15:44:40.211Z,1.15
2023-04-25T15:47:10.023Z,1.05
2023-04-25T15:49:39.713Z,1.50
2023-04-25T15:52:09.434Z,1.30
2023-04-25T15:54:39.302Z,1.40
2023-04-25T15:57:13.165Z,1.50
2023-04-25T15:59:45.497Z,1.80
2023-04-25T16:02:16.536Z,1.63
2023-04-25T16:04:47.418Z,1.60
2023-04-25T16:07:18.305Z,1.17
2023-04-25T16:09:48.036Z,1.20
2023-04-25T16:12:18.681Z,1.23
2023-04-25T16:14:51.181Z,1.17
2023-04-25T16:17:21.132Z,1.20
2023-04-25T16:19:50.923Z,1.20
2023-04-25T16:22:20.801Z,1.23
2023-04-25T16:24:51.073Z,1.50
2023-04-25T16:27:22.074Z,1.10
2023-04-25T16:29:54.442Z,1.00
2023-04-25T16:32:24.219Z,1.30
2023-04-25T16:34:53.939Z,1.40
2023-04-25T16:37:23.716Z,0.98
2023-04-25T16:39:53.635Z,1.30
2023-04-25T16:42:23.397Z,1.00
2023-04-25T16:44:55.667Z,1.17
2023-04-25T16:47:25.508Z,1.60
2023-04-25T16:49:55.386Z,1.17
2023-04-25T16:52:25.076Z,1.05
2023-04-25T16:54:54.804Z,1.00
2023-04-25T16:57:24.444Z,1.00
2023-04-25T16:59:56.788Z,1.00
2023-04-25T17:02:26.650Z,0.93
2023-04-25T17:04:56.435Z,1.30
2023-04-25T17:07:26.945Z,1.00
2023-04-25T17:09:56.856Z,1.23
2023-04-25T17:12:26.761Z,0.93
2023-04-25T17:15:00.479Z,1.10
2023-04-25T17:17:30.347Z,1.00
2023-04-25T17:20:00.166Z,1.38
2023-04-25T17:22:30.028Z,1.10
2023-04-25T17:24:59.766Z,1.25
2023-04-25T17:27:29.512Z,1.58
2023-04-25T17:30:03.735Z,1.30
2023-04-25T17:32:33.889Z,1.50
2023-04-25T17:35:04.102Z,1.90
2023-04-25T17:37:33.868Z,1.65
2023-04-25T17:40:05.044Z,1.70
2023-04-25T17:42:34.762Z,1.70
2023-04-25T17:45:08.169Z,1.92
2023-04-25T17:47:37.960Z,1.83
2023-04-25T17:50:08.897Z,1.55
2023-04-25T17:52:38.763Z,2.05
2023-04-25T17:55:09.754Z,1.80
2023-04-25T17:57:39.645Z,2.17
2023-04-25T18:00:13.706Z,2.20
2023-04-25T18:02:45.821Z,2.40
2023-04-25T18:05:15.783Z,2.40
2023-04-25T18:07:46.126Z,2.33
2023-04-25T18:10:17.734Z,2.10
2023-04-25T18:12:47.541Z,2.17
2023-04-25T18:15:20.944Z,1.90
2023-04-25T18:17:50.818Z,2.15
2023-04-25T18:20:22.421Z,2.28
2023-04-25T18:22:52.316Z,2.80
2023-04-25T18:25:21.999Z,2.75
2023-04-25T18:27:52.226Z,3.20
2023-04-25T18:30:24.734Z,2.40
2023-04-25T18:32:54.468Z,2.53
2023-04-25T18:35:24.328Z,2.50
2023-04-25T18:37:54.422Z,2.40
2023-04-25T18:40:24.175Z,2.67
2023-04-25T18:42:54.071Z,2.40
2023-04-25T18:45:26.306Z,2.35
2023-04-25T18:47:56.212Z,2.42
2023-04-25T18:50:26.576Z,2.80
2023-04-25T18:52:56.389Z,2.42
2023-04-25T18:55:26.044Z,2.72
2023-04-25T18:57:55.902Z,2.70
2023-04-25T19:00:28.186Z,2.53
2023-04-25T19:03:03.363Z,3.15
2023-04-25T19:05:33.491Z,3.00
2023-04-25T19:08:03.225Z,1.90
2023-04-25T19:10:33.039Z,1.38
2023-04-25T19:13:02.827Z,1.33
2023-04-25T19:15:35.920Z,1.20
2023-04-25T19:18:05.625Z,1.40
2023-04-25T19:20:35.966Z,1.45
2023-04-25T19:23:05.677Z,1.42
2023-04-25T19:25:36.597Z,1.60
2023-04-25T19:28:07.935Z,1.23
2023-04-25T19:30:40.291Z,1.42
2023-04-25T19:33:10.675Z,1.30
2023-04-25T19:35:41.336Z,1.50
2023-04-25T19:38:11.363Z,1.52
2023-04-25T19:40:41.402Z,1.50
2023-04-25T19:43:11.364Z,1.60
2023-04-25T19:45:43.668Z,1.50
2023-04-25T19:48:14.277Z,1.38
2023-04-25T19:50:44.064Z,1.30
2023-04-25T19:53:13.723Z,1.58
2023-04-25T19:55:44.360Z,1.38
2023-04-25T19:58:14.650Z,1.25
2023-04-25T20:00:47.301Z,1.67
2023-04-25T20:03:17.185Z,1.30
2023-04-25T20:05:46.915Z,1.20
2023-04-25T20:08:16.650Z,1.25
2023-04-25T20:10:46.296Z,1.40
2023-04-25T20:13:16.348Z,1.30
2023-04-25T20:15:48.686Z,1.35
2023-04-25T20:18:18.468Z,1.27
2023-04-25T20:20:48.301Z,1.17
2023-04-25T20:23:18.158Z,1.20
2023-04-25T20:25:48.148Z,1.70
2023-04-25T20:28:18.006Z,1.33
2023-04-25T20:30:50.569Z,1.17
2023-04-25T20:33:20.306Z,1.50
2023-04-25T20:35:49.996Z,1.33
2023-04-25T20:38:19.722Z,1.25
2023-04-25T20:40:49.522Z,1.75
2023-04-25T20:43:20.024Z,1.27
2023-04-25T20:45:53.490Z,1.23
2023-04-25T20:48:23.663Z,1.15
2023-04-25T20:50:53.346Z,1.15
2023-04-25T20:53:23.270Z,1.42
2023-04-25T20:55:52.992Z,1.10
2023-04-25T20:58:23.108Z,1.33
2023-04-25T21:00:56.578Z,1.20
2023-04-25T21:03:27.350Z,1.55
2023-04-25T21:05:57.356Z,1.13
2023-04-25T21:08:27.034Z,1.63
2023-04-25T21:10:56.723Z,1.23
2023-04-25T21:13:27.421Z,1.23
2023-04-25T21:16:00.146Z,1.42
2023-04-25T21:18:31.926Z,1.10
2023-04-25T21:21:03.277Z,1.10
2023-04-25T21:23:33.083Z,1.42
2023-04-25T21:26:02.845Z,1.48
2023-04-25T21:28:32.553Z,1.08
2023-04-25T21:31:04.955Z,1.10
2023-04-25T21:33:34.743Z,1.35
2023-04-25T21:36:04.378Z,1.73
2023-04-25T21:38:34.072Z,1.20
2023-04-25T21:41:03.781Z,1.45
2023-04-25T21:43:33.488Z,1.40
2023-04-25T21:46:22.262Z,1.20
2023-04-25T21:48:54.172Z,1.20
2023-04-25T21:51:24.155Z,1.33
2023-04-25T21:53:54.068Z,1.40
2023-04-25T21:56:23.848Z,1.20
2023-04-25T21:58:53.845Z,2.20
2023-04-25T22:01:27.748Z,1.00
2023-04-25T22:03:57.742Z,1.20
2023-04-25T22:06:28.690Z,1.20
2023-04-25T22:08:58.519Z,1.33
2023-04-25T22:11:28.652Z,1.15
2023-04-25T22:13:58.376Z,1.20
2023-04-25T22:16:30.781Z,1.30
2023-04-25T22:19:00.678Z,1.27
2023-04-25T22:21:30.739Z,1.48
2023-04-25T22:24:00.499Z,1.08
2023-04-25T22:26:30.536Z,1.35
2023-04-25T22:29:00.384Z,1.40
2023-04-25T22:31:33.645Z,1.33
2023-04-25T22:34:04.123Z,1.52
2023-04-25T22:36:34.022Z,1.55
2023-04-25T22:39:03.737Z,1.65
2023-04-25T22:41:33.581Z,1.27
2023-04-25T22:44:03.232Z,1.30
2023-04-25T22:46:35.537Z,1.30
2023-04-25T22:49:05.474Z,1.17
2023-04-25T22:51:35.198Z,1.27
2023-04-25T22:54:05.658Z,1.42
2023-04-25T22:56:35.453Z,1.20
2023-04-25T22:59:05.104Z,1.20
2023-04-25T23:01:38.053Z,1.42
2023-04-25T23:04:08.531Z,1.20
2023-04-25T23:06:38.383Z,1.83
2023-04-25T23:09:09.978Z,1.35
2023-04-25T23:11:40.596Z,1.38
2023-04-25T23:14:10.318Z,1.70
2023-04-25T23:16:43.211Z,1.50
2023-04-25T23:19:12.862Z,1.65
2023-04-25T23:21:42.793Z,1.30
2023-04-25T23:24:12.731Z,1.58
2023-04-25T23:26:44.289Z,1.40
2023-04-25T23:29:13.959Z,1.38
2023-04-25T23:31:46.191Z,1.38
2023-04-25T23:34:15.892Z,1.38
2023-04-25T23:36:45.721Z,1.58
2023-04-25T23:39:15.645Z,1.30
2023-04-25T23:41:45.298Z,1.42
2023-04-25T23:44:14.955Z,1.90
2023-04-25T23:46:47.308Z,1.95
2023-04-25T23:49:17.144Z,1.88
2023-04-25T23:51:46.848Z,1.73
2023-04-25T23:54:16.691Z,1.42
2023-04-25T23:56:46.350Z,1.17
2023-04-25T23:59:16.357Z,1.15
